Saturday, January 20, 2018, 9:59 AM EST
Back to Local

KNHK, Nas Patuxent River Md

Location: Patuxent River, MD, United States Lat: 38.3
Local Time: 9:59 AM EST (14:59 GMT) Lon: -76.4
Time Zone: US/Eastern Elev: 39 ft

Show me the last for .
Show Decoded

2018-01-20 07:52 METAR KNHK 201252Z 23006KT 10SM FEW280 01/M10 A3003 RMK SLP168 T00061100 =
2018-01-20 04:52 METAR KNHK 200952Z AUTO 23006KT 10SM CLR 02/M11 A3000 RMK AO2 SLP159 T00221111
                 VISNO RY24 $ =
2018-01-19 22:52 METAR KNHK 200352Z 22005KT 10SM CLR 02/M08 A3005 RMK SLP175 T00221083 =
2018-01-19 21:52 METAR KNHK 200252Z 21004KT 10SM CLR M01/M07 A3005 RMK SLP177 T10111067 56005 =
2018-01-19 19:52 METAR KNHK 200052Z 00000KT 10SM CLR M03/M08 A3006 RMK SLP180 T10281078 =
2018-01-19 18:52 METAR KNHK 192352Z 00000KT 10SM FEW260 03/M11 A3007 RMK SLP182 T00281106 10072
                 20022 53001 =
2018-01-19 17:52 METAR KNHK 192252Z 17005KT 10SM FEW260 03/M08 A3006 RMK SLP180 T00281078 =
2018-01-19 16:52 METAR KNHK 192152Z 14005KT 10SM FEW260 04/M08 A3006 RMK SLP179 T00391083 =
2018-01-19 15:52 METAR KNHK 192052Z 15009KT 10SM FEW260 05/M07 A3006 RMK SLP180 T00501072 55005 =
2018-01-19 14:52 METAR KNHK 191952Z 14008KT 10SM CLR 06/M07 A3006 RMK SLP179 T00611072 =
2018-01-19 13:52 METAR KNHK 191852Z 12007KT 10SM CLR 07/M08 A3007 RMK SLP183 T00721083 VISNO RY24
                 =
2018-01-19 12:52 METAR KNHK 191752Z 12008KT 10SM CLR 06/M09 A3008 RMK SLP186 T00611089 10061
                 21061 58026 VISNO RY24 =
2018-01-19 11:52 METAR KNHK 191652Z 10004KT 10SM CLR 05/M09 A3013 RMK SLP201 T00501094 VISNO RY24
                 =
2018-01-19 10:52 METAR KNHK 191552Z 00000KT 10SM FEW280 06/M09 A3016 RMK SLP211 T00561094 VISNO
                 RY24 =

Support USWX by starting your Amazon purchase here.